createdAt,value
2019-01-24T00:05:27.138Z,850.95
2019-01-24T00:11:57.334Z,857.97
2019-01-24T00:15:21.498Z,845.48
2019-01-24T00:21:52.124Z,853.52
2019-01-24T00:24:41.870Z,852.82
2019-01-24T00:31:12.379Z,846.27
2019-01-24T00:37:43.603Z,851.50
2019-01-24T00:40:18.549Z,845.40
2019-01-24T00:46:49.310Z,851.45
2019-01-24T00:53:20.375Z,852.20
2019-01-24T00:59:51.177Z,850.95
2019-01-24T01:03:15.734Z,850.95
2019-01-24T01:09:46.874Z,855.23
2019-01-24T01:13:11.143Z,854.85
2019-01-24T01:19:41.989Z,862.18
2019-01-24T01:26:13.028Z,859.75
2019-01-24T01:29:37.110Z,854.57
2019-01-24T01:36:08.035Z,851.55
2019-01-24T01:42:38.406Z,845.77
2019-01-24T01:49:09.060Z,850.65
2019-01-24T01:52:33.369Z,850.83
2019-01-24T01:59:04.140Z,856.72
2019-01-24T02:02:10.474Z,848.25
2019-01-24T02:08:41.606Z,858.00
2019-01-24T02:12:05.911Z,857.62
2019-01-24T02:18:36.537Z,863.47
2019-01-24T02:25:09.406Z,859.67
2019-01-24T02:28:34.170Z,852.48
2019-01-24T02:35:06.481Z,860.82
2019-01-24T02:41:37.451Z,853.17
2019-01-24T02:44:07.318Z,852.22
2019-01-24T02:50:38.263Z,861.90
2019-01-24T02:57:08.837Z,865.77
2019-01-24T03:00:33.353Z,869.30
2019-01-24T03:07:03.476Z,863.52
2019-01-24T03:13:34.012Z,866.25
2019-01-24T03:16:58.356Z,862.48
2019-01-24T03:23:28.974Z,865.25
2019-01-24T03:29:59.706Z,867.17
2019-01-24T03:33:23.936Z,863.08
2019-01-24T03:39:54.443Z,869.37
2019-01-24T03:42:24.627Z,866.00
2019-01-24T03:44:54.558Z,874.08
2019-01-24T03:51:25.445Z,868.35
2019-01-24T03:54:49.867Z,865.80
2019-01-24T04:01:20.881Z,866.32
2019-01-24T04:04:45.340Z,873.05
2019-01-24T04:11:16.463Z,868.97
2019-01-24T04:17:47.630Z,862.57
2019-01-24T04:21:12.005Z,864.23
2019-01-24T04:27:43.275Z,864.38
2019-01-24T04:34:14.063Z,863.00
2019-01-24T04:40:44.922Z,870.00
2019-01-24T04:47:16.079Z,861.48
2019-01-24T04:53:46.912Z,858.23
2019-01-24T05:00:25.313Z,862.92
2019-01-24T05:06:56.221Z,862.12
2019-01-24T05:10:20.838Z,855.50
2019-01-24T05:16:51.691Z,859.90
2019-01-24T05:20:16.042Z,853.97
2019-01-24T05:26:47.162Z,859.57
2019-01-24T05:33:18.103Z,864.30
2019-01-24T05:36:42.557Z,857.15
2019-01-24T05:43:13.912Z,864.95
2019-01-24T05:46:08.364Z,861.82
2019-01-24T05:48:38.301Z,860.37
2019-01-24T05:55:10.593Z,862.37
2019-01-24T06:01:41.719Z,861.65
2019-01-24T06:08:12.244Z,862.92
2019-01-24T06:14:42.922Z,860.23
2019-01-24T06:21:13.084Z,866.05
2019-01-24T06:27:43.596Z,858.33
2019-01-24T06:31:08.523Z,858.07
2019-01-24T06:37:39.545Z,862.50
2019-01-24T06:40:27.647Z,858.95
2019-01-24T06:47:00.144Z,867.17
2019-01-24T06:49:30.116Z,858.65
2019-01-24T06:56:01.138Z,861.05
2019-01-24T07:02:31.626Z,858.40
2019-01-24T07:09:02.641Z,858.92
2019-01-24T07:12:27.270Z,863.23
2019-01-24T07:18:59.734Z,860.60
2019-01-24T07:25:30.308Z,860.62
2019-01-24T07:28:54.863Z,861.20
2019-01-24T07:35:25.478Z,868.62
2019-01-24T07:41:56.768Z,868.82
2019-01-24T07:45:21.683Z,860.48
2019-01-24T07:51:52.846Z,864.58
2019-01-24T07:55:17.259Z,885.55
2019-01-24T08:01:47.784Z,867.68
2019-01-24T08:08:18.820Z,870.97
2019-01-24T08:11:43.411Z,866.90
2019-01-24T08:18:14.554Z,877.48
2019-01-24T08:24:44.993Z,873.02
2019-01-24T08:28:09.533Z,879.20
2019-01-24T08:34:40.615Z,881.55
2019-01-24T08:41:11.025Z,879.95
2019-01-24T08:47:41.943Z,882.95
2019-01-24T08:50:47.948Z,878.05
2019-01-24T08:53:18.063Z,879.45
2019-01-24T08:59:48.220Z,887.40
2019-01-24T09:06:22.568Z,881.85
2019-01-24T09:12:50.535Z,884.05
2019-01-24T09:16:14.874Z,887.05
2019-01-24T09:22:45.060Z,885.48
2019-01-24T09:29:15.131Z,884.35
2019-01-24T09:32:39.671Z,892.00
2019-01-24T09:39:10.803Z,875.73
2019-01-24T09:45:41.918Z,883.90
2019-01-24T09:49:06.269Z,886.92
2019-01-24T09:55:37.400Z,892.85
2019-01-24T10:02:08.202Z,892.42
2019-01-24T10:05:03.275Z,895.60
2019-01-24T10:11:33.264Z,892.63
2019-01-24T10:14:57.531Z,894.45
2019-01-24T10:21:28.199Z,899.02
2019-01-24T10:27:58.497Z,902.58
2019-01-24T10:31:23.137Z,899.15
2019-01-24T10:37:53.367Z,895.73
2019-01-24T10:44:23.900Z,898.20
2019-01-24T10:50:54.919Z,899.23
2019-01-24T10:54:19.165Z,894.17
2019-01-24T10:56:48.984Z,901.00
2019-01-24T11:03:19.638Z,901.37
2019-01-24T11:09:49.923Z,897.13
2019-01-24T11:16:20.979Z,897.25
2019-01-24T11:19:45.166Z,905.70
2019-01-24T11:26:15.507Z,899.10
2019-01-24T11:32:46.537Z,885.30
2019-01-24T11:36:11.014Z,879.45
2019-01-24T11:42:42.276Z,859.07
2019-01-24T11:49:13.429Z,849.38
2019-01-24T11:52:37.798Z,854.03
2019-01-24T11:59:08.392Z,846.08
2019-01-24T12:05:39.361Z,846.53
2019-01-24T12:09:04.109Z,850.17
2019-01-24T12:15:34.917Z,847.08
2019-01-24T12:18:59.327Z,855.18
2019-01-24T12:25:30.495Z,862.37
2019-01-24T12:32:01.313Z,852.35
2019-01-24T12:35:25.754Z,853.42
2019-01-24T12:41:57.276Z,851.00
2019-01-24T12:48:28.369Z,851.07
2019-01-24T12:51:52.447Z,852.13
2019-01-24T12:58:22.420Z,864.00
2019-01-24T13:00:52.310Z,865.65
2019-01-24T13:07:22.740Z,858.70
2019-01-24T13:13:52.646Z,862.92
2019-01-24T13:20:22.898Z,861.20
2019-01-24T13:26:53.143Z,858.50
2019-01-24T13:30:17.665Z,866.10
2019-01-24T13:36:48.522Z,862.45
2019-01-24T13:40:13.420Z,866.10
2019-01-24T13:46:44.367Z,868.65
2019-01-24T13:53:15.965Z,860.27
2019-01-24T13:56:40.585Z,868.58
2019-01-24T14:03:17.743Z,862.27
2019-01-24T14:09:48.531Z,860.22
2019-01-24T14:13:13.288Z,855.87
2019-01-24T14:19:43.646Z,859.70
2019-01-24T14:23:08.168Z,858.90
2019-01-24T14:29:38.499Z,862.78
2019-01-24T14:33:02.670Z,861.40
2019-01-24T14:39:33.837Z,875.45
2019-01-24T14:46:05.334Z,872.87
2019-01-24T14:49:29.933Z,873.08
2019-01-24T14:56:01.400Z,871.75
2019-01-24T14:59:26.259Z,869.35
2019-01-24T15:05:56.807Z,875.58
2019-01-24T15:12:27.322Z,876.82
2019-01-24T15:18:58.420Z,870.67
2019-01-24T15:22:22.920Z,876.75
2019-01-24T15:28:53.977Z,874.53
2019-01-24T15:32:18.233Z,873.78
2019-01-24T15:38:49.822Z,868.00
2019-01-24T15:45:20.880Z,867.37
2019-01-24T15:48:45.353Z,867.15
2019-01-24T15:55:16.305Z,868.43
2019-01-24T15:58:40.636Z,864.35
2019-01-24T16:05:13.067Z,871.05
2019-01-24T16:07:43.045Z,865.53
2019-01-24T16:14:14.389Z,864.38
2019-01-24T16:20:45.633Z,869.75
2019-01-24T16:27:16.161Z,867.60
2019-01-24T16:30:40.639Z,864.02
2019-01-24T16:37:11.620Z,871.35
2019-01-24T16:43:42.484Z,863.03
2019-01-24T16:50:18.889Z,866.57
2019-01-24T16:53:43.563Z,860.88
2019-01-24T17:00:26.317Z,859.13
2019-01-24T17:03:37.638Z,861.88
2019-01-24T17:10:16.451Z,870.80
2019-01-24T17:16:47.184Z,858.62
2019-01-24T17:20:11.128Z,855.72
2019-01-24T17:26:41.514Z,856.38
2019-01-24T17:30:06.323Z,858.25
2019-01-24T17:36:36.458Z,852.60
2019-01-24T17:43:07.190Z,827.48
2019-01-24T17:49:38.413Z,834.67
2019-01-24T17:53:02.790Z,844.75
2019-01-24T17:59:33.687Z,851.45
2019-01-24T18:02:58.411Z,863.38
2019-01-24T18:09:29.489Z,865.10
2019-01-24T18:11:59.404Z,864.30
2019-01-24T18:14:48.416Z,855.05
2019-01-24T18:17:34.886Z,855.60
2019-01-24T18:20:07.735Z,865.30
2019-01-24T18:22:37.599Z,861.67
2019-01-24T18:25:07.531Z,865.08
2019-01-24T18:28:32.097Z,870.48
2019-01-24T18:35:02.760Z,860.70
2019-01-24T18:41:34.147Z,847.75
2019-01-24T18:44:46.005Z,847.20
2019-01-24T18:51:16.453Z,861.52
2019-01-24T18:54:41.011Z,858.50
2019-01-24T19:01:11.071Z,852.28
2019-01-24T19:07:41.073Z,864.40
2019-01-24T19:14:11.385Z,855.60
2019-01-24T19:16:41.524Z,853.97
2019-01-24T19:23:12.008Z,841.03
2019-01-24T19:29:42.737Z,838.95
2019-01-24T19:36:13.770Z,827.03
2019-01-24T19:39:38.047Z,830.70
2019-01-24T19:46:09.160Z,821.00
2019-01-24T19:52:40.222Z,825.70
2019-01-24T19:59:11.490Z,816.45
2019-01-24T20:05:42.632Z,814.30
2019-01-24T20:12:13.575Z,816.87
2019-01-24T20:18:44.542Z,819.63
2019-01-24T20:25:17.804Z,805.38
2019-01-24T20:27:55.073Z,806.50
2019-01-24T20:34:25.586Z,808.50
2019-01-24T20:37:49.773Z,812.83
2019-01-24T20:44:20.067Z,807.17
2019-01-24T20:50:50.580Z,805.60
2019-01-24T20:54:15.422Z,806.45
2019-01-24T21:00:54.849Z,806.60
2019-01-24T21:07:24.999Z,803.67
2019-01-24T21:13:55.838Z,806.15
2019-01-24T21:20:29.154Z,801.45
2019-01-24T21:27:00.193Z,806.40
2019-01-24T21:33:31.147Z,800.05
2019-01-24T21:40:01.913Z,801.65
2019-01-24T21:43:26.179Z,803.65
2019-01-24T21:49:56.408Z,802.88
2019-01-24T21:56:27.098Z,799.58
2019-01-24T21:59:51.447Z,799.33
2019-01-24T22:06:21.842Z,803.37
2019-01-24T22:09:46.341Z,799.08
2019-01-24T22:16:17.243Z,797.17
2019-01-24T22:19:38.447Z,803.00
2019-01-24T22:22:08.475Z,799.77
2019-01-24T22:28:38.607Z,798.90
2019-01-24T22:35:09.050Z,800.10
2019-01-24T22:41:39.291Z,798.88
2019-01-24T22:45:03.499Z,799.67
2019-01-24T22:51:33.692Z,800.35
2019-01-24T22:54:58.048Z,799.73
2019-01-24T23:01:35.189Z,804.57
2019-01-24T23:04:59.773Z,799.20
2019-01-24T23:11:30.860Z,804.35
2019-01-24T23:14:55.124Z,801.33
2019-01-24T23:21:26.202Z,806.50
2019-01-24T23:27:56.694Z,806.58
2019-01-24T23:34:41.721Z,801.90
2019-01-24T23:45:16.159Z,819.40
2019-01-24T23:51:46.289Z,815.92
2019-01-24T23:55:10.433Z,818.70
